createdAt,value
2022-09-15T00:01:21.170Z,6.00
2022-09-15T00:03:49.772Z,6.50
2022-09-15T00:06:18.342Z,5.90
2022-09-15T00:08:46.160Z,5.40
2022-09-15T00:11:27.333Z,5.70
2022-09-15T00:13:56.507Z,5.60
2022-09-15T00:16:26.376Z,4.90
2022-09-15T00:18:54.752Z,4.90
2022-09-15T00:21:25.830Z,4.80
2022-09-15T00:23:54.306Z,4.90
2022-09-15T00:26:25.502Z,5.00
2022-09-15T00:28:53.985Z,5.90
2022-09-15T00:31:24.050Z,5.50
2022-09-15T00:33:55.675Z,6.00
2022-09-15T00:36:25.347Z,5.40
2022-09-15T00:38:53.632Z,5.10
2022-09-15T00:41:23.684Z,5.40
2022-09-15T00:43:55.192Z,6.20
2022-09-15T00:46:29.350Z,6.40
2022-09-15T00:49:16.550Z,6.60
2022-09-15T00:52:03.811Z,6.10
2022-09-15T00:54:38.257Z,6.80
2022-09-15T00:57:20.415Z,6.10
2022-09-15T00:59:49.312Z,6.20
2022-09-15T01:02:28.245Z,5.60
2022-09-15T01:04:58.754Z,6.20
2022-09-15T01:07:39.467Z,5.60
2022-09-15T01:10:15.187Z,6.30
2022-09-15T01:12:43.253Z,6.00
2022-09-15T01:15:11.574Z,5.80
2022-09-15T01:17:39.520Z,6.00
2022-09-15T01:20:22.574Z,5.80
2022-09-15T01:23:28.012Z,6.40
2022-09-15T01:26:22.508Z,6.20
2022-09-15T01:29:27.582Z,6.80
2022-09-15T01:32:34.449Z,7.10
2022-09-15T01:35:07.780Z,6.10
2022-09-15T01:37:42.289Z,6.30
2022-09-15T01:40:14.962Z,6.40
2022-09-15T01:42:44.868Z,6.40
2022-09-15T01:45:22.016Z,5.90
2022-09-15T01:47:55.302Z,5.90
2022-09-15T01:50:28.646Z,6.10
2022-09-15T01:53:02.663Z,6.40
2022-09-15T01:55:41.821Z,6.70
2022-09-15T01:58:09.860Z,6.90
2022-09-15T02:00:43.957Z,6.20
2022-09-15T02:03:25.379Z,6.20
2022-09-15T02:06:02.070Z,6.40
2022-09-15T02:08:38.343Z,7.60
2022-09-15T02:11:09.223Z,6.70
2022-09-15T02:13:52.442Z,6.60
2022-09-15T02:16:26.270Z,6.60
2022-09-15T02:19:09.889Z,5.90
2022-09-15T02:21:54.071Z,6.40
2022-09-15T02:24:28.805Z,6.80
2022-09-15T02:26:59.666Z,5.90
2022-09-15T02:29:30.473Z,6.30
2022-09-15T02:32:06.860Z,5.90
2022-09-15T02:34:38.831Z,6.30
2022-09-15T02:37:08.389Z,6.30
2022-09-15T02:39:40.240Z,6.00
2022-09-15T02:42:08.203Z,6.60
2022-09-15T02:44:36.545Z,6.70
2022-09-15T02:47:04.660Z,6.50
2022-09-15T02:49:32.782Z,6.30
2022-09-15T02:52:00.750Z,6.30
2022-09-15T02:54:28.511Z,6.70
2022-09-15T02:56:56.336Z,6.90
2022-09-15T02:59:24.174Z,6.50
2022-09-15T03:01:53.070Z,6.70
2022-09-15T03:04:21.184Z,6.60
2022-09-15T03:06:48.956Z,6.70
2022-09-15T03:09:16.768Z,6.90
2022-09-15T03:11:44.559Z,6.90
2022-09-15T03:14:12.795Z,7.30
2022-09-15T03:16:40.654Z,7.40
2022-09-15T03:19:08.891Z,8.10
2022-09-15T03:21:37.676Z,7.20
2022-09-15T03:24:05.729Z,7.30
2022-09-15T03:26:33.847Z,7.20
2022-09-15T03:29:01.669Z,7.20
2022-09-15T03:31:29.583Z,7.00
2022-09-15T03:33:58.338Z,7.10
2022-09-15T03:36:26.186Z,5.90
2022-09-15T03:38:57.863Z,5.90
2022-09-15T03:41:27.920Z,5.30
2022-09-15T03:43:56.813Z,5.70
2022-09-15T03:46:24.650Z,6.60
2022-09-15T03:48:52.492Z,7.20
2022-09-15T03:51:20.563Z,6.20
2022-09-15T03:53:48.368Z,6.90
2022-09-15T03:56:27.118Z,6.80
2022-09-15T03:58:54.967Z,7.30
2022-09-15T04:01:23.665Z,6.70
2022-09-15T04:03:52.254Z,6.80
2022-09-15T04:06:22.137Z,6.40
2022-09-15T04:08:51.093Z,6.10
2022-09-15T04:11:21.163Z,6.30
2022-09-15T04:13:49.146Z,6.10
2022-09-15T04:16:25.401Z,5.90
2022-09-15T04:18:55.245Z,6.00
2022-09-15T04:21:26.225Z,6.50
2022-09-15T04:23:54.484Z,7.20
2022-09-15T04:26:31.400Z,7.70
2022-09-15T04:29:04.171Z,6.60
2022-09-15T04:31:34.248Z,7.40
2022-09-15T04:34:02.635Z,7.00
2022-09-15T04:36:31.616Z,8.00
2022-09-15T04:38:59.597Z,7.80
2022-09-15T04:41:28.587Z,7.70
2022-09-15T04:43:56.823Z,8.00
2022-09-15T04:46:24.769Z,8.80
2022-09-15T04:48:52.739Z,7.50
2022-09-15T04:51:23.171Z,8.10
2022-09-15T04:53:52.072Z,7.70
2022-09-15T04:56:24.111Z,7.40
2022-09-15T04:58:58.247Z,8.80
2022-09-15T05:01:31.839Z,8.20
2022-09-15T05:04:02.164Z,8.00
2022-09-15T05:06:30.208Z,10.00
2022-09-15T05:08:58.696Z,7.70
2022-09-15T05:11:28.427Z,8.00
2022-09-15T05:13:56.480Z,5.50
2022-09-15T05:16:27.780Z,6.60
2022-09-15T05:18:58.880Z,7.30
2022-09-15T05:21:27.696Z,7.70
2022-09-15T05:23:55.913Z,6.80
2022-09-15T05:26:27.154Z,8.10
2022-09-15T05:28:56.729Z,10.80
2022-09-15T05:31:34.028Z,10.60
2022-09-15T05:34:05.674Z,12.40
2022-09-15T05:36:33.992Z,14.00
2022-09-15T05:39:01.931Z,15.80
2022-09-15T05:41:30.533Z,13.70
2022-09-15T05:43:59.317Z,13.00
2022-09-15T05:46:28.073Z,14.50
2022-09-15T05:48:58.275Z,13.80
2022-09-15T05:51:26.793Z,14.70
2022-09-15T05:53:54.685Z,13.60
2022-09-15T05:56:22.743Z,13.90
2022-09-15T05:58:50.754Z,14.40
2022-09-15T06:01:24.718Z,13.70
2022-09-15T06:03:53.570Z,12.50
2022-09-15T06:06:22.607Z,13.00
2022-09-15T06:08:58.385Z,13.80
2022-09-15T06:11:29.751Z,13.20
2022-09-15T06:14:03.376Z,15.20
2022-09-15T06:16:34.441Z,14.10
2022-09-15T06:19:03.779Z,14.90
2022-09-15T06:21:33.201Z,12.90
2022-09-15T06:24:03.641Z,12.70
2022-09-15T06:26:31.653Z,12.90
2022-09-15T06:29:02.175Z,12.10
2022-09-15T06:31:32.880Z,14.50
2022-09-15T06:34:02.580Z,11.60
2022-09-15T06:36:31.634Z,11.60
2022-09-15T06:39:00.156Z,14.00
2022-09-15T06:41:42.610Z,18.70
2022-09-15T06:44:20.203Z,28.70
2022-09-15T06:46:48.938Z,26.50
2022-09-15T06:49:17.524Z,23.20
2022-09-15T06:51:45.596Z,23.00
2022-09-15T06:54:16.080Z,20.80
2022-09-15T06:56:45.148Z,20.70
2022-09-15T06:59:16.398Z,21.20
2022-09-15T07:01:55.230Z,21.40
2022-09-15T07:04:23.514Z,16.50
2022-09-15T07:06:51.559Z,15.50
2022-09-15T07:09:19.683Z,15.20
2022-09-15T07:11:47.769Z,14.70
2022-09-15T07:14:15.906Z,13.80
2022-09-15T07:16:44.541Z,14.60
2022-09-15T07:19:12.745Z,14.30
2022-09-15T07:21:40.948Z,13.30
2022-09-15T07:24:10.851Z,16.30
2022-09-15T07:26:38.914Z,15.00
2022-09-15T07:29:07.190Z,17.10
2022-09-15T07:31:38.165Z,17.10
2022-09-15T07:34:07.168Z,16.90
2022-09-15T07:36:35.622Z,16.30
2022-09-15T07:39:04.836Z,14.80
2022-09-15T07:41:33.441Z,15.50
2022-09-15T07:44:01.898Z,15.60
2022-09-15T07:46:32.858Z,15.80
2022-09-15T07:49:03.182Z,14.10
2022-09-15T07:51:31.778Z,16.80
2022-09-15T07:54:00.299Z,17.50
2022-09-15T07:56:28.503Z,16.80
2022-09-15T07:58:57.181Z,17.00
2022-09-15T08:01:25.796Z,17.50
2022-09-15T08:03:54.031Z,16.90
2022-09-15T08:06:25.327Z,16.90
2022-09-15T08:08:59.334Z,16.50
2022-09-15T08:14:02.965Z,9.10
2022-09-15T08:16:31.170Z,5.90
2022-09-15T08:18:59.451Z,3.40
2022-09-15T08:21:28.417Z,2.30
2022-09-15T08:23:59.056Z,2.10
2022-09-15T08:26:29.060Z,1.80
2022-09-15T08:28:58.126Z,1.60
2022-09-15T08:31:26.784Z,1.90
2022-09-15T08:33:56.159Z,1.90
2022-09-15T08:36:28.059Z,1.70
2022-09-15T08:38:56.854Z,1.90
2022-09-15T08:41:32.401Z,3.00
2022-09-15T08:44:19.147Z,1.90
2022-09-15T08:46:56.899Z,2.10
2022-09-15T08:49:51.852Z,3.40
2022-09-15T08:52:32.649Z,3.60
2022-09-15T08:55:12.826Z,2.50
2022-09-15T08:57:40.914Z,1.90
2022-09-15T09:00:17.142Z,1.70
2022-09-15T09:03:12.065Z,2.00
2022-09-15T09:06:17.887Z,1.80
2022-09-15T09:09:15.522Z,1.90
2022-09-15T09:12:02.224Z,1.80
2022-09-15T09:14:45.460Z,1.70
2022-09-15T09:17:13.873Z,1.70
2022-09-15T09:20:19.518Z,1.90
2022-09-15T09:22:50.464Z,2.30
2022-09-15T09:25:27.594Z,1.80
2022-09-15T09:28:01.951Z,1.70
2022-09-15T09:30:33.446Z,1.90
2022-09-15T09:33:26.740Z,1.70
2022-09-15T09:35:58.199Z,1.50
2022-09-15T09:38:35.276Z,1.70
2022-09-15T09:41:12.329Z,1.70
2022-09-15T09:43:43.302Z,1.70
2022-09-15T09:46:17.648Z,1.40
2022-09-15T09:48:53.431Z,1.50
2022-09-15T09:51:31.894Z,1.50
2022-09-15T09:54:16.546Z,1.50
2022-09-15T09:56:45.514Z,1.50
2022-09-15T09:59:31.773Z,1.50
2022-09-15T10:02:06.026Z,1.80
2022-09-15T10:04:34.500Z,1.80
2022-09-15T10:07:02.857Z,1.20
2022-09-15T10:09:33.513Z,1.60
2022-09-15T10:12:04.465Z,1.30
2022-09-15T10:14:36.804Z,1.40
2022-09-15T10:17:13.272Z,1.20
2022-09-15T10:19:56.034Z,1.40
2022-09-15T10:22:42.460Z,1.20
2022-09-15T10:25:19.684Z,1.60
2022-09-15T10:28:09.413Z,1.60
2022-09-15T10:30:37.424Z,1.60
2022-09-15T10:33:26.745Z,1.40
2022-09-15T10:35:59.870Z,1.40
2022-09-15T10:38:34.474Z,1.60
2022-09-15T10:41:20.579Z,1.30
2022-09-15T10:44:25.677Z,1.40
2022-09-15T10:47:11.899Z,1.90
2022-09-15T10:49:58.670Z,1.90
2022-09-15T10:52:47.825Z,1.50
2022-09-15T10:55:51.637Z,1.30
2022-09-15T10:58:29.993Z,1.50
2022-09-15T11:01:23.231Z,1.80
2022-09-15T11:04:16.118Z,2.50
2022-09-15T11:07:19.684Z,2.00
2022-09-15T11:10:20.320Z,2.30
2022-09-15T11:13:18.239Z,1.60
2022-09-15T11:16:04.577Z,1.80
2022-09-15T11:18:55.699Z,1.40
2022-09-15T11:21:27.940Z,1.60
2022-09-15T11:24:20.987Z,1.50
2022-09-15T11:26:52.416Z,1.50
2022-09-15T11:29:29.625Z,2.70
2022-09-15T11:32:07.302Z,1.70
2022-09-15T11:35:15.614Z,1.80
2022-09-15T11:37:48.544Z,1.80
2022-09-15T11:40:20.145Z,1.60
2022-09-15T11:43:09.434Z,2.10
2022-09-15T11:45:44.512Z,2.00
2022-09-15T11:48:41.367Z,1.90
2022-09-15T11:51:13.579Z,1.50
2022-09-15T11:53:48.457Z,1.70
2022-09-15T11:59:32.114Z,1.90
2022-09-15T12:02:24.750Z,1.80
2022-09-15T12:04:56.949Z,2.10
2022-09-15T12:07:30.981Z,1.20
2022-09-15T12:10:10.187Z,1.60
2022-09-15T12:12:40.600Z,1.90
2022-09-15T12:15:16.030Z,1.40
2022-09-15T12:18:21.366Z,3.80
2022-09-15T12:21:06.104Z,5.30
2022-09-15T12:23:39.209Z,5.50
2022-09-15T12:26:22.031Z,2.40
2022-09-15T12:29:02.629Z,2.00
2022-09-15T12:31:34.597Z,3.20
2022-09-15T12:34:05.560Z,2.40
2022-09-15T12:36:48.104Z,2.30
2022-09-15T12:39:19.019Z,1.90
2022-09-15T12:41:53.072Z,1.90
2022-09-15T12:44:47.999Z,2.60
2022-09-15T12:47:35.778Z,2.70
2022-09-15T12:50:06.862Z,2.10
2022-09-15T12:53:02.945Z,2.00
2022-09-15T12:55:37.053Z,2.00
2022-09-15T12:58:10.766Z,2.40
2022-09-15T13:01:07.106Z,1.80
2022-09-15T13:06:40.289Z,1.80
2022-09-15T13:09:28.148Z,1.80
2022-09-15T13:11:56.756Z,3.50
2022-09-15T13:14:33.834Z,2.80
2022-09-15T13:17:26.008Z,3.10
2022-09-15T13:20:00.010Z,3.00
2022-09-15T13:22:40.942Z,2.60
2022-09-15T13:25:15.667Z,2.10
2022-09-15T13:28:03.723Z,2.00
2022-09-15T13:30:41.159Z,1.40
2022-09-15T13:40:06.564Z,1.50
2022-09-15T13:43:01.142Z,2.40
2022-09-15T13:45:43.431Z,2.80
2022-09-15T13:48:31.079Z,2.10
2022-09-15T13:51:02.355Z,1.90
2022-09-15T13:53:56.105Z,2.20
2022-09-15T13:56:30.219Z,1.60
2022-09-15T13:59:11.436Z,2.10
2022-09-15T14:01:43.089Z,2.40
2022-09-15T14:04:14.729Z,1.80
2022-09-15T14:06:48.802Z,2.30
2022-09-15T14:09:30.208Z,2.20
2022-09-15T14:12:03.842Z,2.00
2022-09-15T14:14:31.889Z,1.90
2022-09-15T14:17:00.432Z,2.50
2022-09-15T14:19:38.488Z,2.00
2022-09-15T14:22:21.875Z,2.20
2022-09-15T14:24:51.261Z,2.80
2022-09-15T14:27:25.651Z,2.20
2022-09-15T14:29:55.549Z,1.80
2022-09-15T14:32:25.625Z,1.70
2022-09-15T14:34:57.452Z,2.00
2022-09-15T14:37:28.675Z,1.70
2022-09-15T14:40:02.251Z,2.90
2022-09-15T14:42:36.184Z,2.00
2022-09-15T14:48:06.220Z,2.40
2022-09-15T14:50:35.360Z,1.90
2022-09-15T14:53:19.550Z,1.90
2022-09-15T14:55:53.578Z,2.00
2022-09-15T14:58:35.177Z,1.90
2022-09-15T15:01:08.093Z,1.80
2022-09-15T15:03:48.107Z,1.70
2022-09-15T15:06:28.684Z,1.80
2022-09-15T15:09:17.991Z,2.50
2022-09-15T15:11:48.535Z,2.20
2022-09-15T15:14:17.286Z,2.70
2022-09-15T15:16:57.073Z,1.90
2022-09-15T15:19:38.693Z,2.30
2022-09-15T15:22:20.985Z,2.10
2022-09-15T15:24:51.835Z,2.60
2022-09-15T15:27:35.139Z,2.30
2022-09-15T15:30:26.899Z,2.40
2022-09-15T15:33:06.526Z,2.30
2022-09-15T15:35:35.929Z,2.50
2022-09-15T15:38:16.735Z,2.50
2022-09-15T15:40:45.937Z,2.30
2022-09-15T15:43:14.003Z,2.20
2022-09-15T15:46:01.414Z,2.90
2022-09-15T15:48:38.652Z,2.30
2022-09-15T15:51:07.869Z,2.50
2022-09-15T15:53:35.958Z,2.50
2022-09-15T15:56:04.211Z,3.20
2022-09-15T15:58:32.514Z,2.70
2022-09-15T16:01:01.198Z,2.30
2022-09-15T16:03:29.111Z,3.20
2022-09-15T16:05:59.553Z,2.30
2022-09-15T16:08:34.138Z,2.80
2022-09-15T16:11:03.500Z,2.80
2022-09-15T16:13:31.732Z,2.70
2022-09-15T16:16:01.243Z,2.80
2022-09-15T16:18:29.991Z,2.40
2022-09-15T16:20:57.894Z,3.00
2022-09-15T16:23:26.001Z,3.10
2022-09-15T16:26:07.846Z,3.10
2022-09-15T16:28:36.385Z,2.70
2022-09-15T16:31:04.547Z,3.40
2022-09-15T16:33:36.027Z,2.70
2022-09-15T16:36:09.178Z,2.80
2022-09-15T16:38:37.290Z,3.30
2022-09-15T16:41:17.959Z,3.10
2022-09-15T16:43:47.626Z,3.90
2022-09-15T16:46:17.446Z,3.00
2022-09-15T16:48:48.638Z,3.30
2022-09-15T16:51:29.542Z,3.30
2022-09-15T16:53:59.119Z,3.60
2022-09-15T16:56:28.295Z,4.40
2022-09-15T16:59:00.286Z,4.10
2022-09-15T17:01:29.146Z,4.30
2022-09-15T17:03:57.643Z,4.00
2022-09-15T17:06:25.714Z,4.10
2022-09-15T17:08:53.841Z,4.10
2022-09-15T17:11:25.269Z,3.70
2022-09-15T17:13:53.516Z,3.50
2022-09-15T17:16:22.159Z,3.50
2022-09-15T17:18:50.300Z,3.60
2022-09-15T17:21:19.789Z,4.00
2022-09-15T17:23:53.050Z,4.20
2022-09-15T17:26:27.595Z,3.90
2022-09-15T17:28:59.080Z,4.90
2022-09-15T17:31:27.960Z,4.20
2022-09-15T17:33:56.466Z,3.80
2022-09-15T17:36:24.490Z,3.20
2022-09-15T17:38:52.519Z,3.50
2022-09-15T17:41:22.944Z,3.50
2022-09-15T17:43:52.490Z,3.30
2022-09-15T17:46:20.735Z,4.70
2022-09-15T17:48:48.740Z,4.30
2022-09-15T17:51:17.579Z,4.70
2022-09-15T17:53:47.105Z,5.10
2022-09-15T17:56:15.318Z,4.70
2022-09-15T17:58:44.456Z,4.30
2022-09-15T18:01:14.619Z,3.70
2022-09-15T18:03:45.211Z,3.10
2022-09-15T18:06:13.790Z,3.40
2022-09-15T18:08:41.940Z,3.50
2022-09-15T18:11:13.702Z,3.40
2022-09-15T18:13:42.203Z,3.90
2022-09-15T18:16:12.945Z,4.50
2022-09-15T18:18:41.269Z,4.40
2022-09-15T18:21:17.294Z,4.40
2022-09-15T18:23:46.134Z,4.00
2022-09-15T18:26:14.071Z,3.60
2022-09-15T18:28:41.870Z,3.80
2022-09-15T18:31:14.140Z,3.50
2022-09-15T18:33:42.067Z,3.10
2022-09-15T18:36:10.971Z,3.80
2022-09-15T18:38:38.939Z,3.60
2022-09-15T18:41:11.885Z,3.40
2022-09-15T18:43:39.819Z,3.70
2022-09-15T18:46:07.856Z,3.90
2022-09-15T18:48:35.832Z,3.40
2022-09-15T18:51:08.454Z,4.00
2022-09-15T18:53:39.649Z,2.90
2022-09-15T18:56:12.479Z,3.10
2022-09-15T18:58:40.712Z,3.10
2022-09-15T19:01:08.722Z,2.80
2022-09-15T19:03:44.001Z,3.30
2022-09-15T19:06:12.613Z,2.90
2022-09-15T19:08:40.824Z,2.60
2022-09-15T19:11:09.449Z,3.10
2022-09-15T19:13:37.268Z,3.10
2022-09-15T19:16:06.709Z,2.10
2022-09-15T19:18:35.508Z,2.80
2022-09-15T19:21:05.461Z,2.90
2022-09-15T19:23:33.418Z,2.90
2022-09-15T19:26:06.641Z,2.90
2022-09-15T19:28:35.195Z,3.70
2022-09-15T19:31:03.264Z,3.30
2022-09-15T19:33:31.238Z,3.20
2022-09-15T19:36:17.550Z,3.30
2022-09-15T19:38:51.980Z,3.00
2022-09-15T19:41:19.838Z,3.00
2022-09-15T19:43:47.919Z,3.10
2022-09-15T19:46:20.162Z,3.20
2022-09-15T19:48:50.126Z,2.80
2022-09-15T19:51:19.368Z,3.10
2022-09-15T19:53:47.699Z,4.10
2022-09-15T19:56:18.788Z,3.90
2022-09-15T19:58:46.756Z,5.00
2022-09-15T20:01:15.659Z,4.10
2022-09-15T20:06:32.715Z,4.10
2022-09-15T20:09:00.887Z,3.80
2022-09-15T20:11:30.144Z,3.60
2022-09-15T20:13:58.879Z,4.40
2022-09-15T20:16:27.554Z,3.90
2022-09-15T20:18:56.082Z,3.80
2022-09-15T20:21:48.581Z,4.20
2022-09-15T20:24:16.807Z,3.30
2022-09-15T20:26:44.903Z,3.50
2022-09-15T20:29:13.307Z,4.20
2022-09-15T20:31:42.657Z,4.30
2022-09-15T20:34:10.883Z,3.90
2022-09-15T20:36:39.810Z,4.10
2022-09-15T20:39:12.013Z,3.90
2022-09-15T20:41:41.355Z,3.90
2022-09-15T20:44:09.599Z,4.10
2022-09-15T20:46:37.809Z,4.20
2022-09-15T20:49:07.015Z,4.40
2022-09-15T20:51:35.238Z,4.30
2022-09-15T20:54:04.501Z,4.30
2022-09-15T20:56:35.060Z,3.90
2022-09-15T20:59:04.736Z,4.30
2022-09-15T21:01:36.863Z,4.20
2022-09-15T21:04:08.529Z,4.50
2022-09-15T21:06:37.124Z,4.90
2022-09-15T21:09:06.081Z,5.20
2022-09-15T21:11:34.692Z,5.00
2022-09-15T21:14:03.352Z,4.80
2022-09-15T21:16:31.655Z,4.90
2022-09-15T21:18:59.650Z,5.50
2022-09-15T21:21:30.345Z,5.30
2022-09-15T21:24:04.326Z,4.80
2022-09-15T21:27:01.093Z,4.30
2022-09-15T21:29:29.598Z,4.40
2022-09-15T21:31:58.054Z,3.90
2022-09-15T21:34:26.548Z,4.10
2022-09-15T21:36:54.526Z,3.40
2022-09-15T21:39:22.725Z,4.40
2022-09-15T21:41:50.529Z,4.20
2022-09-15T21:44:18.666Z,3.90
2022-09-15T21:46:47.359Z,4.00
2022-09-15T21:49:15.348Z,4.50
2022-09-15T21:51:43.186Z,3.70
2022-09-15T21:54:11.067Z,4.30
2022-09-15T21:56:38.888Z,3.80
2022-09-15T21:59:09.115Z,4.60
2022-09-15T22:01:37.169Z,3.50
2022-09-15T22:04:08.035Z,4.10
2022-09-15T22:06:40.367Z,4.30
2022-09-15T22:09:13.222Z,4.60
2022-09-15T22:11:41.764Z,3.90
2022-09-15T22:14:10.498Z,4.20
2022-09-15T22:16:40.242Z,3.40
2022-09-15T22:19:10.168Z,3.40
2022-09-15T22:21:41.799Z,3.60
2022-09-15T22:24:12.941Z,2.80
2022-09-15T22:26:42.199Z,3.10
2022-09-15T22:29:10.704Z,2.70
2022-09-15T22:31:38.928Z,3.20
2022-09-15T22:34:06.813Z,3.00
2022-09-15T22:36:38.335Z,3.20
2022-09-15T22:39:06.723Z,2.90
2022-09-15T22:41:38.486Z,4.10
2022-09-15T22:44:07.808Z,3.10
2022-09-15T22:46:35.731Z,3.20
2022-09-15T22:49:03.706Z,2.80
2022-09-15T22:51:31.635Z,3.80
2022-09-15T22:53:59.742Z,3.10
2022-09-15T22:56:27.617Z,2.70
2022-09-15T22:58:56.866Z,3.30
2022-09-15T23:01:28.086Z,3.20
2022-09-15T23:04:01.719Z,2.90
2022-09-15T23:06:32.800Z,2.80
2022-09-15T23:09:03.451Z,3.40
2022-09-15T23:11:34.069Z,3.60
2022-09-15T23:14:02.655Z,3.20
2022-09-15T23:16:31.604Z,3.40
2022-09-15T23:18:59.822Z,3.30
2022-09-15T23:21:28.507Z,3.10
2022-09-15T23:23:56.518Z,3.10
2022-09-15T23:26:25.156Z,3.30
2022-09-15T23:28:53.280Z,2.90
2022-09-15T23:31:21.878Z,3.30
2022-09-15T23:33:49.790Z,3.20
2022-09-15T23:36:22.010Z,3.10
2022-09-15T23:38:50.202Z,3.20
2022-09-15T23:41:18.526Z,3.10
2022-09-15T23:43:47.263Z,3.00
2022-09-15T23:46:17.490Z,3.10
2022-09-15T23:48:45.540Z,3.40
2022-09-15T23:51:13.415Z,2.80
2022-09-15T23:53:41.305Z,3.10
2022-09-15T23:56:09.183Z,4.10
2022-09-15T23:58:37.592Z,2.90
